sensor_id;sensor_type;location;lat;lon;timestamp;P1;durP1;ratioP1;P2;durP2;ratioP2
70332;SDS011;57747;43.548;-5.704;2023-08-31T00:01:13;1.65;;;1.08;;
70332;SDS011;57747;43.548;-5.704;2023-08-31T00:03:39;2.58;;;1.30;;
70332;SDS011;57747;43.548;-5.704;2023-08-31T00:06:04;18.25;;;1.70;;
70332;SDS011;57747;43.548;-5.704;2023-08-31T00:08:32;5.20;;;1.90;;
70332;SDS011;57747;43.548;-5.704;2023-08-31T00:11:01;2.80;;;1.50;;
70332;SDS011;57747;43.548;-5.704;2023-08-31T00:13:28;5.05;;;1.70;;
70332;SDS011;57747;43.548;-5.704;2023-08-31T00:15:55;4.63;;;1.48;;
70332;SDS011;57747;43.548;-5.704;2023-08-31T00:18:22;4.07;;;1.50;;
70332;SDS011;57747;43.548;-5.704;2023-08-31T00:20:47;13.52;;;1.67;;
70332;SDS011;57747;43.548;-5.704;2023-08-31T00:23:12;5.65;;;1.08;;
70332;SDS011;57747;43.548;-5.704;2023-08-31T00:25:38;3.20;;;1.40;;
70332;SDS011;57747;43.548;-5.704;2023-08-31T00:28:03;2.17;;;1.20;;
70332;SDS011;57747;43.548;-5.704;2023-08-31T00:30:30;6.50;;;1.67;;
70332;SDS011;57747;43.548;-5.704;2023-08-31T00:32:55;4.47;;;1.35;;
70332;SDS011;57747;43.548;-5.704;2023-08-31T00:35:27;7.65;;;2.35;;
70332;SDS011;57747;43.548;-5.704;2023-08-31T00:37:56;5.10;;;1.65;;
70332;SDS011;57747;43.548;-5.704;2023-08-31T00:40:25;7.10;;;2.30;;
70332;SDS011;57747;43.548;-5.704;2023-08-31T00:42:51;4.93;;;1.90;;
70332;SDS011;57747;43.548;-5.704;2023-08-31T00:45:17;8.25;;;2.33;;
70332;SDS011;57747;43.548;-5.704;2023-08-31T00:47:43;1.65;;;1.33;;
70332;SDS011;57747;43.548;-5.704;2023-08-31T00:50:08;7.55;;;1.98;;
70332;SDS011;57747;43.548;-5.704;2023-08-31T00:52:34;2.15;;;1.42;;
70332;SDS011;57747;43.548;-5.704;2023-08-31T00:54:59;4.60;;;1.88;;
70332;SDS011;57747;43.548;-5.704;2023-08-31T00:57:26;4.72;;;2.05;;
70332;SDS011;57747;43.548;-5.704;2023-08-31T00:59:52;11.27;;;1.65;;
70332;SDS011;57747;43.548;-5.704;2023-08-31T01:02:22;4.85;;;1.83;;
70332;SDS011;57747;43.548;-5.704;2023-08-31T01:07:43;2.55;;;1.27;;
70332;SDS011;57747;43.548;-5.704;2023-08-31T01:10:24;2.80;;;1.50;;
70332;SDS011;57747;43.548;-5.704;2023-08-31T01:12:57;3.00;;;1.88;;
70332;SDS011;57747;43.548;-5.704;2023-08-31T01:15:26;6.30;;;1.58;;
70332;SDS011;57747;43.548;-5.704;2023-08-31T01:17:52;6.72;;;1.75;;
70332;SDS011;57747;43.548;-5.704;2023-08-31T01:23:07;3.60;;;1.58;;
70332;SDS011;57747;43.548;-5.704;2023-08-31T01:25:33;9.45;;;2.28;;
70332;SDS011;57747;43.548;-5.704;2023-08-31T01:27:59;3.70;;;1.90;;
70332;SDS011;57747;43.548;-5.704;2023-08-31T01:30:24;4.18;;;2.53;;
70332;SDS011;57747;43.548;-5.704;2023-08-31T01:32:50;8.98;;;2.60;;
70332;SDS011;57747;43.548;-5.704;2023-08-31T01:35:18;6.22;;;2.08;;
70332;SDS011;57747;43.548;-5.704;2023-08-31T01:40:12;4.63;;;1.83;;
70332;SDS011;57747;43.548;-5.704;2023-08-31T01:42:40;6.82;;;1.77;;
70332;SDS011;57747;43.548;-5.704;2023-08-31T01:45:06;3.15;;;1.77;;
70332;SDS011;57747;43.548;-5.704;2023-08-31T01:47:32;3.65;;;1.67;;
70332;SDS011;57747;43.548;-5.704;2023-08-31T01:49:57;2.35;;;1.45;;
70332;SDS011;57747;43.548;-5.704;2023-08-31T01:52:22;5.40;;;2.25;;
70332;SDS011;57747;43.548;-5.704;2023-08-31T01:54:48;7.30;;;2.15;;
70332;SDS011;57747;43.548;-5.704;2023-08-31T01:57:13;9.77;;;2.47;;
70332;SDS011;57747;43.548;-5.704;2023-08-31T01:59:39;4.03;;;2.35;;
70332;SDS011;57747;43.548;-5.704;2023-08-31T02:02:04;11.63;;;2.03;;
70332;SDS011;57747;43.548;-5.704;2023-08-31T02:04:34;3.20;;;1.52;;
70332;SDS011;57747;43.548;-5.704;2023-08-31T02:06:59;3.28;;;1.85;;
70332;SDS011;57747;43.548;-5.704;2023-08-31T02:09:25;13.18;;;2.10;;
70332;SDS011;57747;43.548;-5.704;2023-08-31T02:11:50;5.85;;;2.03;;
70332;SDS011;57747;43.548;-5.704;2023-08-31T02:14:15;11.82;;;2.40;;
70332;SDS011;57747;43.548;-5.704;2023-08-31T02:16:44;9.77;;;2.05;;
70332;SDS011;57747;43.548;-5.704;2023-08-31T02:19:09;4.82;;;2.00;;
70332;SDS011;57747;43.548;-5.704;2023-08-31T02:21:37;4.40;;;2.17;;
70332;SDS011;57747;43.548;-5.704;2023-08-31T02:24:03;2.95;;;2.13;;
70332;SDS011;57747;43.548;-5.704;2023-08-31T02:26:29;7.57;;;1.80;;
70332;SDS011;57747;43.548;-5.704;2023-08-31T02:28:54;3.05;;;1.92;;
70332;SDS011;57747;43.548;-5.704;2023-08-31T02:31:25;2.92;;;1.85;;
70332;SDS011;57747;43.548;-5.704;2023-08-31T02:33:50;6.43;;;1.83;;
70332;SDS011;57747;43.548;-5.704;2023-08-31T02:36:19;2.55;;;1.73;;
70332;SDS011;57747;43.548;-5.704;2023-08-31T02:38:45;5.05;;;2.10;;
70332;SDS011;57747;43.548;-5.704;2023-08-31T02:41:11;4.13;;;1.40;;
70332;SDS011;57747;43.548;-5.704;2023-08-31T02:43:36;4.50;;;1.90;;
70332;SDS011;57747;43.548;-5.704;2023-08-31T02:46:04;2.63;;;1.58;;
70332;SDS011;57747;43.548;-5.704;2023-08-31T02:48:31;2.28;;;1.42;;
70332;SDS011;57747;43.548;-5.704;2023-08-31T02:51:00;2.72;;;1.42;;
70332;SDS011;57747;43.548;-5.704;2023-08-31T02:53:29;2.67;;;1.58;;
70332;SDS011;57747;43.548;-5.704;2023-08-31T02:55:57;5.55;;;1.20;;
70332;SDS011;57747;43.548;-5.704;2023-08-31T02:58:25;1.48;;;1.10;;
70332;SDS011;57747;43.548;-5.704;2023-08-31T03:03:28;2.42;;;1.35;;
70332;SDS011;57747;43.548;-5.704;2023-08-31T03:05:54;2.22;;;1.17;;
70332;SDS011;57747;43.548;-5.704;2023-08-31T03:08:20;6.82;;;1.58;;
70332;SDS011;57747;43.548;-5.704;2023-08-31T03:10:45;3.38;;;1.23;;
70332;SDS011;57747;43.548;-5.704;2023-08-31T03:13:10;4.60;;;1.30;;
70332;SDS011;57747;43.548;-5.704;2023-08-31T03:15:36;3.42;;;1.67;;
70332;SDS011;57747;43.548;-5.704;2023-08-31T03:18:01;3.83;;;1.45;;
70332;SDS011;57747;43.548;-5.704;2023-08-31T03:20:27;2.53;;;1.40;;
70332;SDS011;57747;43.548;-5.704;2023-08-31T03:22:52;2.55;;;1.33;;
70332;SDS011;57747;43.548;-5.704;2023-08-31T03:25:18;6.15;;;1.83;;
70332;SDS011;57747;43.548;-5.704;2023-08-31T03:27:43;7.15;;;1.48;;
70332;SDS011;57747;43.548;-5.704;2023-08-31T03:30:09;3.55;;;1.77;;
70332;SDS011;57747;43.548;-5.704;2023-08-31T03:32:35;6.60;;;1.90;;
70332;SDS011;57747;43.548;-5.704;2023-08-31T03:35:01;2.58;;;1.73;;
70332;SDS011;57747;43.548;-5.704;2023-08-31T03:37:30;7.18;;;1.80;;
70332;SDS011;57747;43.548;-5.704;2023-08-31T03:39:55;5.50;;;1.83;;
70332;SDS011;57747;43.548;-5.704;2023-08-31T03:42:20;6.60;;;2.47;;
70332;SDS011;57747;43.548;-5.704;2023-08-31T03:44:46;6.93;;;1.70;;
70332;SDS011;57747;43.548;-5.704;2023-08-31T03:47:11;3.78;;;2.15;;
70332;SDS011;57747;43.548;-5.704;2023-08-31T03:49:37;2.63;;;1.52;;
70332;SDS011;57747;43.548;-5.704;2023-08-31T03:52:02;4.57;;;2.03;;
70332;SDS011;57747;43.548;-5.704;2023-08-31T03:54:27;4.60;;;2.03;;
70332;SDS011;57747;43.548;-5.704;2023-08-31T03:56:53;3.53;;;1.67;;
70332;SDS011;57747;43.548;-5.704;2023-08-31T03:59:18;8.15;;;1.80;;
70332;SDS011;57747;43.548;-5.704;2023-08-31T04:01:44;2.85;;;1.50;;
70332;SDS011;57747;43.548;-5.704;2023-08-31T04:04:09;8.20;;;2.03;;
70332;SDS011;57747;43.548;-5.704;2023-08-31T04:06:35;12.75;;;2.08;;
70332;SDS011;57747;43.548;-5.704;2023-08-31T04:09:00;4.03;;;1.90;;
70332;SDS011;57747;43.548;-5.704;2023-08-31T04:11:25;3.22;;;1.58;;
70332;SDS011;57747;43.548;-5.704;2023-08-31T04:13:51;10.43;;;2.58;;
70332;SDS011;57747;43.548;-5.704;2023-08-31T04:16:17;3.38;;;1.92;;
70332;SDS011;57747;43.548;-5.704;2023-08-31T04:18:42;5.40;;;2.10;;
70332;SDS011;57747;43.548;-5.704;2023-08-31T04:21:08;1.75;;;1.33;;
70332;SDS011;57747;43.548;-5.704;2023-08-31T04:23:33;4.32;;;1.98;;
70332;SDS011;57747;43.548;-5.704;2023-08-31T04:25:58;5.10;;;1.92;;
70332;SDS011;57747;43.548;-5.704;2023-08-31T04:28:24;4.03;;;1.52;;
70332;SDS011;57747;43.548;-5.704;2023-08-31T04:30:52;3.53;;;1.75;;
70332;SDS011;57747;43.548;-5.704;2023-08-31T04:33:18;5.22;;;1.67;;
70332;SDS011;57747;43.548;-5.704;2023-08-31T04:35:43;4.28;;;1.38;;
70332;SDS011;57747;43.548;-5.704;2023-08-31T04:38:09;1.92;;;1.40;;
70332;SDS011;57747;43.548;-5.704;2023-08-31T04:40:38;2.28;;;1.50;;
70332;SDS011;57747;43.548;-5.704;2023-08-31T04:43:03;3.17;;;2.03;;
70332;SDS011;57747;43.548;-5.704;2023-08-31T04:45:28;5.80;;;1.95;;
70332;SDS011;57747;43.548;-5.704;2023-08-31T04:47:54;8.23;;;2.00;;
70332;SDS011;57747;43.548;-5.704;2023-08-31T04:50:21;8.65;;;2.25;;
70332;SDS011;57747;43.548;-5.704;2023-08-31T04:52:49;6.65;;;2.17;;
70332;SDS011;57747;43.548;-5.704;2023-08-31T04:55:15;5.50;;;2.17;;
70332;SDS011;57747;43.548;-5.704;2023-08-31T04:57:40;5.97;;;1.58;;
70332;SDS011;57747;43.548;-5.704;2023-08-31T05:00:06;3.30;;;1.50;;
70332;SDS011;57747;43.548;-5.704;2023-08-31T05:02:34;6.43;;;2.20;;
70332;SDS011;57747;43.548;-5.704;2023-08-31T05:05:00;10.02;;;2.85;;
70332;SDS011;57747;43.548;-5.704;2023-08-31T05:07:27;7.50;;;3.10;;
70332;SDS011;57747;43.548;-5.704;2023-08-31T05:09:53;5.15;;;2.85;;
70332;SDS011;57747;43.548;-5.704;2023-08-31T05:12:18;6.22;;;3.10;;
70332;SDS011;57747;43.548;-5.704;2023-08-31T05:14:44;7.40;;;3.83;;
70332;SDS011;57747;43.548;-5.704;2023-08-31T05:17:09;6.40;;;2.35;;
70332;SDS011;57747;43.548;-5.704;2023-08-31T05:19:34;4.22;;;2.38;;
70332;SDS011;57747;43.548;-5.704;2023-08-31T05:22:00;3.15;;;1.55;;
70332;SDS011;57747;43.548;-5.704;2023-08-31T05:24:25;5.80;;;1.80;;
70332;SDS011;57747;43.548;-5.704;2023-08-31T05:26:51;5.40;;;2.17;;
70332;SDS011;57747;43.548;-5.704;2023-08-31T05:29:16;5.15;;;1.98;;
70332;SDS011;57747;43.548;-5.704;2023-08-31T05:31:41;4.30;;;1.52;;
70332;SDS011;57747;43.548;-5.704;2023-08-31T05:34:09;3.78;;;1.77;;
70332;SDS011;57747;43.548;-5.704;2023-08-31T05:36:34;2.90;;;1.48;;
70332;SDS011;57747;43.548;-5.704;2023-08-31T05:39:00;2.10;;;1.40;;
70332;SDS011;57747;43.548;-5.704;2023-08-31T05:41:25;7.75;;;2.05;;
70332;SDS011;57747;43.548;-5.704;2023-08-31T05:43:50;6.35;;;1.88;;
70332;SDS011;57747;43.548;-5.704;2023-08-31T05:46:16;8.18;;;3.30;;
70332;SDS011;57747;43.548;-5.704;2023-08-31T05:48:41;7.18;;;3.45;;
70332;SDS011;57747;43.548;-5.704;2023-08-31T05:51:06;18.20;;;3.90;;
70332;SDS011;57747;43.548;-5.704;2023-08-31T05:53:32;12.93;;;2.85;;
70332;SDS011;57747;43.548;-5.704;2023-08-31T05:55:58;5.85;;;2.90;;
70332;SDS011;57747;43.548;-5.704;2023-08-31T05:58:33;14.32;;;3.10;;
70332;SDS011;57747;43.548;-5.704;2023-08-31T06:00:59;9.10;;;3.17;;
70332;SDS011;57747;43.548;-5.704;2023-08-31T06:03:24;5.22;;;2.03;;
70332;SDS011;57747;43.548;-5.704;2023-08-31T06:05:50;19.48;;;2.72;;
70332;SDS011;57747;43.548;-5.704;2023-08-31T06:08:15;5.72;;;2.42;;
70332;SDS011;57747;43.548;-5.704;2023-08-31T06:10:43;10.85;;;2.95;;
70332;SDS011;57747;43.548;-5.704;2023-08-31T06:13:08;3.03;;;2.03;;
70332;SDS011;57747;43.548;-5.704;2023-08-31T06:15:34;9.52;;;2.97;;
70332;SDS011;57747;43.548;-5.704;2023-08-31T06:17:59;3.50;;;2.00;;
70332;SDS011;57747;43.548;-5.704;2023-08-31T06:20:24;8.02;;;2.58;;
70332;SDS011;57747;43.548;-5.704;2023-08-31T06:22:50;3.55;;;1.92;;
70332;SDS011;57747;43.548;-5.704;2023-08-31T06:25:18;3.20;;;1.75;;
70332;SDS011;57747;43.548;-5.704;2023-08-31T06:27:48;5.25;;;2.22;;
70332;SDS011;57747;43.548;-5.704;2023-08-31T06:30:13;3.38;;;2.30;;
70332;SDS011;57747;43.548;-5.704;2023-08-31T06:32:44;13.82;;;2.47;;
70332;SDS011;57747;43.548;-5.704;2023-08-31T06:35:10;10.68;;;5.75;;
70332;SDS011;57747;43.548;-5.704;2023-08-31T06:37:37;30.90;;;17.35;;
70332;SDS011;57747;43.548;-5.704;2023-08-31T06:40:04;9.38;;;6.10;;
70332;SDS011;57747;43.548;-5.704;2023-08-31T06:42:30;9.05;;;3.20;;
70332;SDS011;57747;43.548;-5.704;2023-08-31T06:44:55;5.25;;;3.22;;
70332;SDS011;57747;43.548;-5.704;2023-08-31T06:47:22;8.48;;;3.10;;
70332;SDS011;57747;43.548;-5.704;2023-08-31T06:49:47;4.57;;;2.85;;
70332;SDS011;57747;43.548;-5.704;2023-08-31T06:52:13;5.63;;;3.20;;
70332;SDS011;57747;43.548;-5.704;2023-08-31T06:54:38;8.27;;;2.45;;
70332;SDS011;57747;43.548;-5.704;2023-08-31T06:57:03;10.98;;;2.75;;
70332;SDS011;57747;43.548;-5.704;2023-08-31T06:59:29;7.03;;;2.42;;
70332;SDS011;57747;43.548;-5.704;2023-08-31T07:01:54;4.72;;;2.35;;
70332;SDS011;57747;43.548;-5.704;2023-08-31T07:04:21;38.80;;;3.33;;
70332;SDS011;57747;43.548;-5.704;2023-08-31T07:06:46;5.53;;;2.60;;
70332;SDS011;57747;43.548;-5.704;2023-08-31T07:09:12;4.95;;;2.42;;
70332;SDS011;57747;43.548;-5.704;2023-08-31T07:11:37;5.00;;;3.25;;
70332;SDS011;57747;43.548;-5.704;2023-08-31T07:14:05;5.63;;;2.80;;
70332;SDS011;57747;43.548;-5.704;2023-08-31T07:16:33;8.35;;;4.25;;
70332;SDS011;57747;43.548;-5.704;2023-08-31T07:18:58;8.90;;;3.08;;
70332;SDS011;57747;43.548;-5.704;2023-08-31T07:21:23;11.90;;;2.53;;
70332;SDS011;57747;43.548;-5.704;2023-08-31T07:23:51;5.65;;;2.55;;
70332;SDS011;57747;43.548;-5.704;2023-08-31T07:26:17;11.07;;;2.60;;
70332;SDS011;57747;43.548;-5.704;2023-08-31T07:28:42;9.85;;;2.95;;
70332;SDS011;57747;43.548;-5.704;2023-08-31T07:31:10;6.60;;;2.38;;
70332;SDS011;57747;43.548;-5.704;2023-08-31T07:33:36;6.47;;;2.92;;
70332;SDS011;57747;43.548;-5.704;2023-08-31T07:36:01;3.45;;;1.92;;
70332;SDS011;57747;43.548;-5.704;2023-08-31T07:38:32;5.28;;;2.70;;
70332;SDS011;57747;43.548;-5.704;2023-08-31T07:40:58;4.68;;;2.20;;
70332;SDS011;57747;43.548;-5.704;2023-08-31T07:43:24;4.65;;;2.35;;
70332;SDS011;57747;43.548;-5.704;2023-08-31T07:45:53;3.85;;;2.05;;
70332;SDS011;57747;43.548;-5.704;2023-08-31T07:48:19;9.05;;;2.97;;
70332;SDS011;57747;43.548;-5.704;2023-08-31T07:50:47;11.20;;;2.78;;
70332;SDS011;57747;43.548;-5.704;2023-08-31T07:53:13;8.07;;;2.40;;
70332;SDS011;57747;43.548;-5.704;2023-08-31T07:55:39;4.85;;;1.67;;
70332;SDS011;57747;43.548;-5.704;2023-08-31T07:58:04;4.47;;;1.95;;
70332;SDS011;57747;43.548;-5.704;2023-08-31T08:00:30;4.60;;;1.80;;
70332;SDS011;57747;43.548;-5.704;2023-08-31T08:02:56;4.93;;;1.90;;
70332;SDS011;57747;43.548;-5.704;2023-08-31T08:05:21;4.05;;;1.80;;
70332;SDS011;57747;43.548;-5.704;2023-08-31T08:07:47;6.22;;;2.03;;
70332;SDS011;57747;43.548;-5.704;2023-08-31T08:10:13;6.65;;;1.67;;
70332;SDS011;57747;43.548;-5.704;2023-08-31T08:12:40;2.08;;;1.30;;
70332;SDS011;57747;43.548;-5.704;2023-08-31T08:15:06;4.97;;;1.73;;
70332;SDS011;57747;43.548;-5.704;2023-08-31T08:17:34;1.83;;;1.17;;
70332;SDS011;57747;43.548;-5.704;2023-08-31T08:20:00;4.50;;;1.48;;
70332;SDS011;57747;43.548;-5.704;2023-08-31T08:22:25;4.20;;;1.63;;
70332;SDS011;57747;43.548;-5.704;2023-08-31T08:24:53;4.30;;;1.75;;
70332;SDS011;57747;43.548;-5.704;2023-08-31T08:27:18;8.65;;;2.38;;
70332;SDS011;57747;43.548;-5.704;2023-08-31T08:29:48;3.72;;;1.80;;
70332;SDS011;57747;43.548;-5.704;2023-08-31T08:32:13;2.88;;;1.10;;
70332;SDS011;57747;43.548;-5.704;2023-08-31T08:34:38;8.02;;;1.65;;
70332;SDS011;57747;43.548;-5.704;2023-08-31T08:37:04;5.32;;;1.85;;
70332;SDS011;57747;43.548;-5.704;2023-08-31T08:39:30;5.95;;;2.03;;
70332;SDS011;57747;43.548;-5.704;2023-08-31T08:41:56;4.03;;;1.95;;
70332;SDS011;57747;43.548;-5.704;2023-08-31T08:44:22;3.28;;;1.60;;
70332;SDS011;57747;43.548;-5.704;2023-08-31T08:46:49;1.70;;;1.33;;
70332;SDS011;57747;43.548;-5.704;2023-08-31T08:49:15;6.32;;;2.22;;
70332;SDS011;57747;43.548;-5.704;2023-08-31T08:51:41;8.68;;;1.00;;
70332;SDS011;57747;43.548;-5.704;2023-08-31T08:54:06;10.52;;;1.67;;
70332;SDS011;57747;43.548;-5.704;2023-08-31T08:56:31;4.35;;;1.50;;
70332;SDS011;57747;43.548;-5.704;2023-08-31T08:58:57;6.72;;;1.10;;
70332;SDS011;57747;43.548;-5.704;2023-08-31T09:01:23;1.05;;;0.77;;
70332;SDS011;57747;43.548;-5.704;2023-08-31T09:03:51;2.28;;;0.90;;
70332;SDS011;57747;43.548;-5.704;2023-08-31T09:06:16;8.20;;;0.80;;
70332;SDS011;57747;43.548;-5.704;2023-08-31T09:08:41;1.88;;;0.85;;
70332;SDS011;57747;43.548;-5.704;2023-08-31T09:11:07;2.20;;;1.13;;
70332;SDS011;57747;43.548;-5.704;2023-08-31T09:13:35;2.03;;;0.85;;
70332;SDS011;57747;43.548;-5.704;2023-08-31T09:16:00;1.92;;;1.05;;
70332;SDS011;57747;43.548;-5.704;2023-08-31T09:18:29;1.10;;;0.95;;
70332;SDS011;57747;43.548;-5.704;2023-08-31T09:20:56;3.25;;;1.00;;
70332;SDS011;57747;43.548;-5.704;2023-08-31T09:23:22;3.95;;;1.55;;
70332;SDS011;57747;43.548;-5.704;2023-08-31T09:25:51;0.25;;;0.22;;
70332;SDS011;57747;43.548;-5.704;2023-08-31T09:28:22;2.75;;;0.50;;
70332;SDS011;57747;43.548;-5.704;2023-08-31T09:30:50;0.30;;;0.30;;
70332;SDS011;57747;43.548;-5.704;2023-08-31T09:33:20;1.25;;;0.60;;
70332;SDS011;57747;43.548;-5.704;2023-08-31T09:35:49;0.57;;;0.47;;
70332;SDS011;57747;43.548;-5.704;2023-08-31T09:38:18;1.30;;;0.50;;
70332;SDS011;57747;43.548;-5.704;2023-08-31T09:40:51;1.25;;;0.57;;
70332;SDS011;57747;43.548;-5.704;2023-08-31T09:43:38;0.85;;;0.55;;
70332;SDS011;57747;43.548;-5.704;2023-08-31T09:46:04;3.70;;;0.70;;
70332;SDS011;57747;43.548;-5.704;2023-08-31T09:48:30;2.45;;;0.68;;
70332;SDS011;57747;43.548;-5.704;2023-08-31T09:50:56;3.05;;;0.70;;
70332;SDS011;57747;43.548;-5.704;2023-08-31T09:53:23;0.80;;;0.52;;
70332;SDS011;57747;43.548;-5.704;2023-08-31T09:55:49;0.57;;;0.55;;
70332;SDS011;57747;43.548;-5.704;2023-08-31T09:58:17;1.25;;;0.40;;
70332;SDS011;57747;43.548;-5.704;2023-08-31T10:00:43;2.20;;;0.90;;
70332;SDS011;57747;43.548;-5.704;2023-08-31T10:03:12;1.65;;;0.52;;
70332;SDS011;57747;43.548;-5.704;2023-08-31T10:05:43;1.20;;;0.40;;
70332;SDS011;57747;43.548;-5.704;2023-08-31T10:08:09;0.70;;;0.50;;
70332;SDS011;57747;43.548;-5.704;2023-08-31T10:10:35;0.68;;;0.45;;
70332;SDS011;57747;43.548;-5.704;2023-08-31T10:13:04;0.63;;;0.40;;
70332;SDS011;57747;43.548;-5.704;2023-08-31T10:15:31;0.40;;;0.40;;
70332;SDS011;57747;43.548;-5.704;2023-08-31T10:17:58;0.85;;;0.52;;
70332;SDS011;57747;43.548;-5.704;2023-08-31T10:20:24;0.40;;;0.40;;
70332;SDS011;57747;43.548;-5.704;2023-08-31T10:22:53;1.33;;;0.40;;
70332;SDS011;57747;43.548;-5.704;2023-08-31T10:25:21;0.85;;;0.60;;
70332;SDS011;57747;43.548;-5.704;2023-08-31T10:27:46;0.63;;;0.50;;
70332;SDS011;57747;43.548;-5.704;2023-08-31T10:33:33;0.85;;;0.52;;
70332;SDS011;57747;43.548;-5.704;2023-08-31T10:38:13;0.63;;;0.57;;
70332;SDS011;57747;43.548;-5.704;2023-08-31T10:40:39;6.40;;;0.80;;
70332;SDS011;57747;43.548;-5.704;2023-08-31T10:43:14;0.93;;;0.60;;
70332;SDS011;57747;43.548;-5.704;2023-08-31T10:45:43;2.50;;;0.80;;
70332;SDS011;57747;43.548;-5.704;2023-08-31T10:48:08;1.35;;;0.57;;
70332;SDS011;57747;43.548;-5.704;2023-08-31T10:50:34;3.40;;;1.17;;
70332;SDS011;57747;43.548;-5.704;2023-08-31T10:53:09;1.50;;;0.70;;
70332;SDS011;57747;43.548;-5.704;2023-08-31T10:55:49;5.68;;;0.60;;
70332;SDS011;57747;43.548;-5.704;2023-08-31T10:58:14;1.95;;;0.70;;
70332;SDS011;57747;43.548;-5.704;2023-08-31T11:00:46;2.42;;;0.80;;
70332;SDS011;57747;43.548;-5.704;2023-08-31T11:03:12;1.85;;;0.73;;
70332;SDS011;57747;43.548;-5.704;2023-08-31T11:05:40;1.77;;;0.90;;
70332;SDS011;57747;43.548;-5.704;2023-08-31T11:08:15;2.17;;;0.60;;
70332;SDS011;57747;43.548;-5.704;2023-08-31T11:10:40;0.50;;;0.40;;
70332;SDS011;57747;43.548;-5.704;2023-08-31T11:13:18;1.00;;;0.65;;
70332;SDS011;57747;43.548;-5.704;2023-08-31T11:15:46;1.13;;;0.52;;
70332;SDS011;57747;43.548;-5.704;2023-08-31T11:18:12;5.47;;;0.68;;
70332;SDS011;57747;43.548;-5.704;2023-08-31T11:20:39;0.85;;;0.60;;
70332;SDS011;57747;43.548;-5.704;2023-08-31T11:23:04;1.05;;;0.65;;
70332;SDS011;57747;43.548;-5.704;2023-08-31T11:25:30;0.75;;;0.50;;
70332;SDS011;57747;43.548;-5.704;2023-08-31T11:28:03;5.13;;;0.70;;
70332;SDS011;57747;43.548;-5.704;2023-08-31T11:30:31;3.20;;;0.45;;
70332;SDS011;57747;43.548;-5.704;2023-08-31T11:33:00;7.55;;;1.85;;
70332;SDS011;57747;43.548;-5.704;2023-08-31T11:35:30;0.40;;;0.40;;
70332;SDS011;57747;43.548;-5.704;2023-08-31T11:37:56;5.50;;;0.57;;
70332;SDS011;57747;43.548;-5.704;2023-08-31T11:40:24;2.25;;;0.80;;
70332;SDS011;57747;43.548;-5.704;2023-08-31T11:42:53;1.75;;;0.82;;
70332;SDS011;57747;43.548;-5.704;2023-08-31T11:45:22;1.27;;;0.75;;
70332;SDS011;57747;43.548;-5.704;2023-08-31T11:47:47;6.65;;;0.93;;
70332;SDS011;57747;43.548;-5.704;2023-08-31T11:50:13;6.70;;;1.45;;
70332;SDS011;57747;43.548;-5.704;2023-08-31T11:52:39;1.60;;;0.90;;
70332;SDS011;57747;43.548;-5.704;2023-08-31T11:55:09;0.63;;;0.40;;
70332;SDS011;57747;43.548;-5.704;2023-08-31T11:57:35;0.73;;;0.68;;
70332;SDS011;57747;43.548;-5.704;2023-08-31T12:03:08;1.75;;;0.80;;
70332;SDS011;57747;43.548;-5.704;2023-08-31T12:05:47;1.00;;;0.60;;
70332;SDS011;57747;43.548;-5.704;2023-08-31T12:08:23;1.95;;;0.70;;
70332;SDS011;57747;43.548;-5.704;2023-08-31T12:11:15;2.80;;;0.70;;
70332;SDS011;57747;43.548;-5.704;2023-08-31T12:16:38;1.30;;;0.52;;
70332;SDS011;57747;43.548;-5.704;2023-08-31T12:19:06;0.60;;;0.50;;
70332;SDS011;57747;43.548;-5.704;2023-08-31T12:21:31;1.08;;;0.60;;
70332;SDS011;57747;43.548;-5.704;2023-08-31T12:24:00;0.50;;;0.35;;
70332;SDS011;57747;43.548;-5.704;2023-08-31T12:26:28;0.93;;;0.40;;
70332;SDS011;57747;43.548;-5.704;2023-08-31T12:28:54;0.88;;;0.40;;
70332;SDS011;57747;43.548;-5.704;2023-08-31T12:31:19;0.90;;;0.50;;
70332;SDS011;57747;43.548;-5.704;2023-08-31T12:33:44;1.08;;;0.40;;
70332;SDS011;57747;43.548;-5.704;2023-08-31T12:36:10;0.60;;;0.43;;
70332;SDS011;57747;43.548;-5.704;2023-08-31T12:38:35;0.50;;;0.47;;
70332;SDS011;57747;43.548;-5.704;2023-08-31T12:41:00;0.45;;;0.30;;
70332;SDS011;57747;43.548;-5.704;2023-08-31T12:43:27;1.70;;;0.77;;
70332;SDS011;57747;43.548;-5.704;2023-08-31T12:45:54;3.60;;;0.30;;
70332;SDS011;57747;43.548;-5.704;2023-08-31T12:48:19;0.82;;;0.40;;
70332;SDS011;57747;43.548;-5.704;2023-08-31T12:50:45;1.05;;;0.70;;
70332;SDS011;57747;43.548;-5.704;2023-08-31T12:53:10;0.50;;;0.40;;
70332;SDS011;57747;43.548;-5.704;2023-08-31T12:55:35;1.30;;;0.60;;
70332;SDS011;57747;43.548;-5.704;2023-08-31T12:58:01;1.05;;;0.43;;
70332;SDS011;57747;43.548;-5.704;2023-08-31T13:00:26;0.68;;;0.32;;
70332;SDS011;57747;43.548;-5.704;2023-08-31T13:02:54;3.15;;;0.52;;
70332;SDS011;57747;43.548;-5.704;2023-08-31T13:05:20;0.28;;;0.22;;
70332;SDS011;57747;43.548;-5.704;2023-08-31T13:07:45;0.47;;;0.32;;
70332;SDS011;57747;43.548;-5.704;2023-08-31T13:10:14;0.40;;;0.40;;
70332;SDS011;57747;43.548;-5.704;2023-08-31T13:12:39;0.30;;;0.30;;
70332;SDS011;57747;43.548;-5.704;2023-08-31T13:15:07;1.38;;;0.52;;
70332;SDS011;57747;43.548;-5.704;2023-08-31T13:17:33;1.08;;;0.50;;
70332;SDS011;57747;43.548;-5.704;2023-08-31T13:20:01;1.77;;;0.32;;
70332;SDS011;57747;43.548;-5.704;2023-08-31T13:22:28;0.93;;;0.57;;
70332;SDS011;57747;43.548;-5.704;2023-08-31T13:24:56;1.60;;;0.40;;
70332;SDS011;57747;43.548;-5.704;2023-08-31T13:27:41;0.28;;;0.20;;
70332;SDS011;57747;43.548;-5.704;2023-08-31T13:30:09;0.10;;;0.10;;
70332;SDS011;57747;43.548;-5.704;2023-08-31T13:32:37;0.38;;;0.30;;
70332;SDS011;57747;43.548;-5.704;2023-08-31T13:35:03;0.20;;;0.20;;
70332;SDS011;57747;43.548;-5.704;2023-08-31T13:37:53;0.22;;;0.20;;
70332;SDS011;57747;43.548;-5.704;2023-08-31T13:40:24;0.30;;;0.30;;
70332;SDS011;57747;43.548;-5.704;2023-08-31T13:42:55;0.32;;;0.32;;
70332;SDS011;57747;43.548;-5.704;2023-08-31T13:45:28;0.20;;;0.20;;
70332;SDS011;57747;43.548;-5.704;2023-08-31T13:47:53;0.10;;;0.10;;
70332;SDS011;57747;43.548;-5.704;2023-08-31T13:50:19;0.20;;;0.20;;
70332;SDS011;57747;43.548;-5.704;2023-08-31T13:52:46;1.42;;;0.30;;
70332;SDS011;57747;43.548;-5.704;2023-08-31T13:55:12;1.75;;;0.32;;
70332;SDS011;57747;43.548;-5.704;2023-08-31T14:00:34;1.10;;;0.38;;
70332;SDS011;57747;43.548;-5.704;2023-08-31T14:03:00;0.32;;;0.20;;
70332;SDS011;57747;43.548;-5.704;2023-08-31T14:05:29;0.32;;;0.20;;
70332;SDS011;57747;43.548;-5.704;2023-08-31T14:07:54;0.20;;;0.20;;
70332;SDS011;57747;43.548;-5.704;2023-08-31T14:10:20;1.33;;;0.25;;
70332;SDS011;57747;43.548;-5.704;2023-08-31T14:12:47;0.38;;;0.30;;
70332;SDS011;57747;43.548;-5.704;2023-08-31T14:15:13;1.35;;;0.30;;
70332;SDS011;57747;43.548;-5.704;2023-08-31T14:17:38;3.50;;;0.30;;
70332;SDS011;57747;43.548;-5.704;2023-08-31T14:20:04;0.13;;;0.13;;
70332;SDS011;57747;43.548;-5.704;2023-08-31T14:22:35;0.30;;;0.30;;
70332;SDS011;57747;43.548;-5.704;2023-08-31T14:25:01;0.40;;;0.20;;
70332;SDS011;57747;43.548;-5.704;2023-08-31T14:27:28;0.20;;;0.20;;
70332;SDS011;57747;43.548;-5.704;2023-08-31T14:29:55;0.30;;;0.30;;
70332;SDS011;57747;43.548;-5.704;2023-08-31T14:32:21;0.70;;;0.30;;
70332;SDS011;57747;43.548;-5.704;2023-08-31T14:34:49;0.20;;;0.20;;
70332;SDS011;57747;43.548;-5.704;2023-08-31T14:37:14;0.30;;;0.30;;
70332;SDS011;57747;43.548;-5.704;2023-08-31T14:39:40;0.63;;;0.40;;
70332;SDS011;57747;43.548;-5.704;2023-08-31T14:42:05;0.60;;;0.40;;
70332;SDS011;57747;43.548;-5.704;2023-08-31T14:44:31;0.43;;;0.30;;
70332;SDS011;57747;43.548;-5.704;2023-08-31T14:46:56;0.65;;;0.30;;
70332;SDS011;57747;43.548;-5.704;2023-08-31T14:49:22;1.92;;;0.40;;
70332;SDS011;57747;43.548;-5.704;2023-08-31T14:51:47;1.45;;;0.40;;
70332;SDS011;57747;43.548;-5.704;2023-08-31T14:54:13;0.43;;;0.30;;
70332;SDS011;57747;43.548;-5.704;2023-08-31T14:56:38;1.35;;;0.47;;